sensor_id;sensor_type;location;lat;lon;timestamp;temperature;humidity
7572;DHT22;3827;49.928;8.548;2023-04-24T00:01:00;10.40;99.90
7572;DHT22;3827;49.928;8.548;2023-04-24T00:03:28;10.40;99.90
7572;DHT22;3827;49.928;8.548;2023-04-24T00:05:56;10.40;99.90
7572;DHT22;3827;49.928;8.548;2023-04-24T00:08:24;10.40;99.90
7572;DHT22;3827;49.928;8.548;2023-04-24T00:10:51;10.50;99.90
7572;DHT22;3827;49.928;8.548;2023-04-24T00:13:18;10.50;99.90
7572;DHT22;3827;49.928;8.548;2023-04-24T00:15:45;10.70;99.90
7572;DHT22;3827;49.928;8.548;2023-04-24T00:18:12;10.70;99.90
7572;DHT22;3827;49.928;8.548;2023-04-24T00:20:39;10.70;99.90
7572;DHT22;3827;49.928;8.548;2023-04-24T00:23:07;10.70;99.90
7572;DHT22;3827;49.928;8.548;2023-04-24T00:25:34;10.70;99.90
7572;DHT22;3827;49.928;8.548;2023-04-24T00:28:01;10.80;99.90
7572;DHT22;3827;49.928;8.548;2023-04-24T00:30:28;10.80;99.90
7572;DHT22;3827;49.928;8.548;2023-04-24T00:32:55;10.80;99.90
7572;DHT22;3827;49.928;8.548;2023-04-24T00:35:21;11.30;99.90
7572;DHT22;3827;49.928;8.548;2023-04-24T00:37:48;10.90;99.90
7572;DHT22;3827;49.928;8.548;2023-04-24T00:40:17;10.90;99.90
7572;DHT22;3827;49.928;8.548;2023-04-24T00:42:44;11.00;99.90
7572;DHT22;3827;49.928;8.548;2023-04-24T00:45:11;11.20;99.90
7572;DHT22;3827;49.928;8.548;2023-04-24T00:47:38;10.70;99.90
7572;DHT22;3827;49.928;8.548;2023-04-24T00:50:06;10.70;99.90
7572;DHT22;3827;49.928;8.548;2023-04-24T00:52:34;10.70;99.90
7572;DHT22;3827;49.928;8.548;2023-04-24T00:55:02;11.10;99.90
7572;DHT22;3827;49.928;8.548;2023-04-24T00:57:30;10.90;99.90
7572;DHT22;3827;49.928;8.548;2023-04-24T00:59:57;10.60;99.90
7572;DHT22;3827;49.928;8.548;2023-04-24T01:02:24;10.70;99.90
7572;DHT22;3827;49.928;8.548;2023-04-24T01:04:52;10.70;99.90
7572;DHT22;3827;49.928;8.548;2023-04-24T01:07:20;11.30;99.90
7572;DHT22;3827;49.928;8.548;2023-04-24T01:09:48;10.80;99.90
7572;DHT22;3827;49.928;8.548;2023-04-24T01:12:16;10.80;99.90
7572;DHT22;3827;49.928;8.548;2023-04-24T01:14:45;11.40;99.90
7572;DHT22;3827;49.928;8.548;2023-04-24T01:17:12;10.90;99.90
7572;DHT22;3827;49.928;8.548;2023-04-24T01:19:39;10.80;99.90
7572;DHT22;3827;49.928;8.548;2023-04-24T01:22:12;10.70;99.90
7572;DHT22;3827;49.928;8.548;2023-04-24T01:24:39;10.60;99.90
7572;DHT22;3827;49.928;8.548;2023-04-24T01:27:07;10.50;99.90
7572;DHT22;3827;49.928;8.548;2023-04-24T01:29:35;10.40;99.90
7572;DHT22;3827;49.928;8.548;2023-04-24T01:32:02;10.40;99.90
7572;DHT22;3827;49.928;8.548;2023-04-24T01:34:30;10.40;99.90
7572;DHT22;3827;49.928;8.548;2023-04-24T01:36:57;10.40;99.90
7572;DHT22;3827;49.928;8.548;2023-04-24T01:39:25;10.40;99.90
7572;DHT22;3827;49.928;8.548;2023-04-24T01:41:54;10.40;99.90
7572;DHT22;3827;49.928;8.548;2023-04-24T01:44:21;10.50;99.90
7572;DHT22;3827;49.928;8.548;2023-04-24T01:46:48;10.50;99.90
7572;DHT22;3827;49.928;8.548;2023-04-24T01:49:15;10.50;99.90
7572;DHT22;3827;49.928;8.548;2023-04-24T01:51:42;10.50;99.90
7572;DHT22;3827;49.928;8.548;2023-04-24T01:54:10;10.60;99.90
7572;DHT22;3827;49.928;8.548;2023-04-24T01:56:41;10.70;99.90
7572;DHT22;3827;49.928;8.548;2023-04-24T01:59:09;10.80;99.90
7572;DHT22;3827;49.928;8.548;2023-04-24T02:01:37;10.80;99.90
7572;DHT22;3827;49.928;8.548;2023-04-24T02:04:04;10.90;99.90
7572;DHT22;3827;49.928;8.548;2023-04-24T02:06:31;10.90;99.90
7572;DHT22;3827;49.928;8.548;2023-04-24T02:08:58;11.00;99.90
7572;DHT22;3827;49.928;8.548;2023-04-24T02:11:25;11.10;99.90
7572;DHT22;3827;49.928;8.548;2023-04-24T02:13:53;11.10;99.90
7572;DHT22;3827;49.928;8.548;2023-04-24T02:16:20;11.10;99.90
7572;DHT22;3827;49.928;8.548;2023-04-24T02:18:47;11.00;99.90
7572;DHT22;3827;49.928;8.548;2023-04-24T02:21:14;11.00;99.90
7572;DHT22;3827;49.928;8.548;2023-04-24T02:23:40;10.90;99.90
7572;DHT22;3827;49.928;8.548;2023-04-24T02:26:07;10.80;99.90
7572;DHT22;3827;49.928;8.548;2023-04-24T02:28:34;10.60;99.90
7572;DHT22;3827;49.928;8.548;2023-04-24T02:31:02;11.80;99.90
7572;DHT22;3827;49.928;8.548;2023-04-24T02:33:29;10.60;99.90
7572;DHT22;3827;49.928;8.548;2023-04-24T02:35:56;10.50;99.90
7572;DHT22;3827;49.928;8.548;2023-04-24T02:38:22;10.60;99.90
7572;DHT22;3827;49.928;8.548;2023-04-24T02:40:49;10.50;99.90
7572;DHT22;3827;49.928;8.548;2023-04-24T02:43:16;10.50;99.90
7572;DHT22;3827;49.928;8.548;2023-04-24T02:45:43;10.60;99.90
7572;DHT22;3827;49.928;8.548;2023-04-24T02:48:11;10.60;99.90
7572;DHT22;3827;49.928;8.548;2023-04-24T02:50:38;10.60;99.90
7572;DHT22;3827;49.928;8.548;2023-04-24T02:53:05;10.60;99.90
7572;DHT22;3827;49.928;8.548;2023-04-24T02:55:31;10.70;99.90
7572;DHT22;3827;49.928;8.548;2023-04-24T02:57:58;10.80;99.90
7572;DHT22;3827;49.928;8.548;2023-04-24T03:00:25;10.80;99.90
7572;DHT22;3827;49.928;8.548;2023-04-24T03:02:52;10.80;99.90
7572;DHT22;3827;49.928;8.548;2023-04-24T03:05:20;10.80;99.90
7572;DHT22;3827;49.928;8.548;2023-04-24T03:07:47;10.90;99.90
7572;DHT22;3827;49.928;8.548;2023-04-24T03:10:13;10.80;99.90
7572;DHT22;3827;49.928;8.548;2023-04-24T03:12:40;10.90;99.90
7572;DHT22;3827;49.928;8.548;2023-04-24T03:15:08;10.80;99.90
7572;DHT22;3827;49.928;8.548;2023-04-24T03:17:35;10.70;99.90
7572;DHT22;3827;49.928;8.548;2023-04-24T03:20:02;10.80;99.90
7572;DHT22;3827;49.928;8.548;2023-04-24T03:22:32;10.50;99.90
7572;DHT22;3827;49.928;8.548;2023-04-24T03:24:59;10.50;99.90
7572;DHT22;3827;49.928;8.548;2023-04-24T03:27:26;10.40;99.90
7572;DHT22;3827;49.928;8.548;2023-04-24T03:29:52;10.30;99.90
7572;DHT22;3827;49.928;8.548;2023-04-24T03:32:20;10.30;99.90
7572;DHT22;3827;49.928;8.548;2023-04-24T03:34:48;10.20;99.90
7572;DHT22;3827;49.928;8.548;2023-04-24T03:37:15;10.20;99.90
7572;DHT22;3827;49.928;8.548;2023-04-24T03:39:43;10.20;99.90
7572;DHT22;3827;49.928;8.548;2023-04-24T03:42:10;10.10;99.90
7572;DHT22;3827;49.928;8.548;2023-04-24T03:44:37;10.10;99.90
7572;DHT22;3827;49.928;8.548;2023-04-24T03:47:04;10.10;99.90
7572;DHT22;3827;49.928;8.548;2023-04-24T03:49:30;10.00;99.90
7572;DHT22;3827;49.928;8.548;2023-04-24T03:51:57;10.00;99.90
7572;DHT22;3827;49.928;8.548;2023-04-24T03:54:24;10.00;99.90
7572;DHT22;3827;49.928;8.548;2023-04-24T03:56:52;10.10;99.90
7572;DHT22;3827;49.928;8.548;2023-04-24T03:59:19;9.90;99.90
7572;DHT22;3827;49.928;8.548;2023-04-24T04:01:46;9.90;99.90
7572;DHT22;3827;49.928;8.548;2023-04-24T04:04:12;9.90;99.90
7572;DHT22;3827;49.928;8.548;2023-04-24T04:06:39;9.80;99.90
7572;DHT22;3827;49.928;8.548;2023-04-24T04:09:06;9.80;99.90
7572;DHT22;3827;49.928;8.548;2023-04-24T04:11:34;9.70;99.90
7572;DHT22;3827;49.928;8.548;2023-04-24T04:14:03;9.70;99.90
7572;DHT22;3827;49.928;8.548;2023-04-24T04:16:30;9.50;99.90
7572;DHT22;3827;49.928;8.548;2023-04-24T04:18:57;9.40;99.90
7572;DHT22;3827;49.928;8.548;2023-04-24T04:21:24;9.40;99.90
7572;DHT22;3827;49.928;8.548;2023-04-24T04:23:52;9.30;99.90
7572;DHT22;3827;49.928;8.548;2023-04-24T04:26:19;9.20;99.90
7572;DHT22;3827;49.928;8.548;2023-04-24T04:28:46;9.20;99.90
7572;DHT22;3827;49.928;8.548;2023-04-24T04:31:15;9.10;99.90
7572;DHT22;3827;49.928;8.548;2023-04-24T04:33:42;9.10;99.90
7572;DHT22;3827;49.928;8.548;2023-04-24T04:36:09;9.10;99.90
7572;DHT22;3827;49.928;8.548;2023-04-24T04:38:36;9.20;99.90
7572;DHT22;3827;49.928;8.548;2023-04-24T04:41:03;8.90;99.90
7572;DHT22;3827;49.928;8.548;2023-04-24T04:43:29;8.90;99.90
7572;DHT22;3827;49.928;8.548;2023-04-24T04:45:58;8.90;99.90
7572;DHT22;3827;49.928;8.548;2023-04-24T04:48:27;8.80;99.90
7572;DHT22;3827;49.928;8.548;2023-04-24T04:50:54;8.80;99.90
7572;DHT22;3827;49.928;8.548;2023-04-24T04:53:21;8.80;99.90
7572;DHT22;3827;49.928;8.548;2023-04-24T04:55:48;8.80;99.90
7572;DHT22;3827;49.928;8.548;2023-04-24T04:58:14;8.90;99.90
7572;DHT22;3827;49.928;8.548;2023-04-24T05:00:41;8.70;99.90
7572;DHT22;3827;49.928;8.548;2023-04-24T05:03:08;8.70;99.90
7572;DHT22;3827;49.928;8.548;2023-04-24T05:05:36;8.70;99.90
7572;DHT22;3827;49.928;8.548;2023-04-24T05:08:06;8.70;99.90
7572;DHT22;3827;49.928;8.548;2023-04-24T05:10:33;8.80;99.90
7572;DHT22;3827;49.928;8.548;2023-04-24T05:12:59;8.80;99.90
7572;DHT22;3827;49.928;8.548;2023-04-24T05:15:26;8.90;99.90
7572;DHT22;3827;49.928;8.548;2023-04-24T05:17:53;8.80;99.90
7572;DHT22;3827;49.928;8.548;2023-04-24T05:20:20;8.90;99.90
7572;DHT22;3827;49.928;8.548;2023-04-24T05:22:48;8.80;99.90
7572;DHT22;3827;49.928;8.548;2023-04-24T05:25:54;8.80;99.90
7572;DHT22;3827;49.928;8.548;2023-04-24T05:28:20;8.80;99.90
7572;DHT22;3827;49.928;8.548;2023-04-24T05:30:47;8.90;99.90
7572;DHT22;3827;49.928;8.548;2023-04-24T05:33:14;9.10;99.90
7572;DHT22;3827;49.928;8.548;2023-04-24T05:35:41;9.20;99.90
7572;DHT22;3827;49.928;8.548;2023-04-24T05:38:11;9.30;99.90
7572;DHT22;3827;49.928;8.548;2023-04-24T05:40:38;9.30;99.90
7572;DHT22;3827;49.928;8.548;2023-04-24T05:43:06;9.30;99.90
7572;DHT22;3827;49.928;8.548;2023-04-24T05:45:33;10.00;99.90
7572;DHT22;3827;49.928;8.548;2023-04-24T05:48:01;9.50;99.90
7572;DHT22;3827;49.928;8.548;2023-04-24T05:50:28;9.50;99.90
7572;DHT22;3827;49.928;8.548;2023-04-24T05:52:55;9.50;99.90
7572;DHT22;3827;49.928;8.548;2023-04-24T05:55:23;9.50;99.90
7572;DHT22;3827;49.928;8.548;2023-04-24T05:57:50;9.40;99.90
7572;DHT22;3827;49.928;8.548;2023-04-24T06:00:19;9.40;99.90
7572;DHT22;3827;49.928;8.548;2023-04-24T06:02:46;9.50;99.90
7572;DHT22;3827;49.928;8.548;2023-04-24T06:05:13;9.50;99.90
7572;DHT22;3827;49.928;8.548;2023-04-24T06:07:40;9.50;99.90
7572;DHT22;3827;49.928;8.548;2023-04-24T06:10:08;9.50;99.90
7572;DHT22;3827;49.928;8.548;2023-04-24T06:12:35;9.60;99.90
7572;DHT22;3827;49.928;8.548;2023-04-24T06:15:02;9.60;99.90
7572;DHT22;3827;49.928;8.548;2023-04-24T06:17:30;9.60;99.90
7572;DHT22;3827;49.928;8.548;2023-04-24T06:19:57;9.80;99.90
7572;DHT22;3827;49.928;8.548;2023-04-24T06:22:24;9.90;99.90
7572;DHT22;3827;49.928;8.548;2023-04-24T06:24:51;10.10;99.90
7572;DHT22;3827;49.928;8.548;2023-04-24T06:27:17;10.30;99.90
7572;DHT22;3827;49.928;8.548;2023-04-24T06:29:44;10.40;99.90
7572;DHT22;3827;49.928;8.548;2023-04-24T06:32:11;10.60;99.90
7572;DHT22;3827;49.928;8.548;2023-04-24T06:34:39;10.70;99.90
7572;DHT22;3827;49.928;8.548;2023-04-24T06:37:07;10.80;99.90
7572;DHT22;3827;49.928;8.548;2023-04-24T06:39:34;10.80;99.90
7572;DHT22;3827;49.928;8.548;2023-04-24T06:42:01;10.90;99.90
7572;DHT22;3827;49.928;8.548;2023-04-24T06:44:28;10.90;99.90
7572;DHT22;3827;49.928;8.548;2023-04-24T06:46:54;11.00;99.90
7572;DHT22;3827;49.928;8.548;2023-04-24T06:49:21;11.10;99.90
7572;DHT22;3827;49.928;8.548;2023-04-24T06:51:49;11.10;99.90
7572;DHT22;3827;49.928;8.548;2023-04-24T06:54:16;11.20;99.90
7572;DHT22;3827;49.928;8.548;2023-04-24T06:56:43;11.30;99.90
7572;DHT22;3827;49.928;8.548;2023-04-24T06:59:11;11.40;99.90
7572;DHT22;3827;49.928;8.548;2023-04-24T07:01:38;11.60;99.90
7572;DHT22;3827;49.928;8.548;2023-04-24T07:04:05;11.50;99.90
7572;DHT22;3827;49.928;8.548;2023-04-24T07:06:32;11.50;99.90
7572;DHT22;3827;49.928;8.548;2023-04-24T07:09:00;11.50;99.90
7572;DHT22;3827;49.928;8.548;2023-04-24T07:11:27;11.60;99.90
7572;DHT22;3827;49.928;8.548;2023-04-24T07:13:54;11.50;99.90
7572;DHT22;3827;49.928;8.548;2023-04-24T07:16:21;11.50;99.90
7572;DHT22;3827;49.928;8.548;2023-04-24T07:18:48;11.60;99.90
7572;DHT22;3827;49.928;8.548;2023-04-24T07:21:15;11.60;99.90
7572;DHT22;3827;49.928;8.548;2023-04-24T07:23:42;11.70;99.90
7572;DHT22;3827;49.928;8.548;2023-04-24T07:26:10;11.70;99.90
7572;DHT22;3827;49.928;8.548;2023-04-24T07:28:37;11.90;99.90
7572;DHT22;3827;49.928;8.548;2023-04-24T07:31:03;11.90;99.90
7572;DHT22;3827;49.928;8.548;2023-04-24T07:33:30;11.80;99.90
7572;DHT22;3827;49.928;8.548;2023-04-24T07:35:57;11.90;99.90
7572;DHT22;3827;49.928;8.548;2023-04-24T07:38:25;11.70;99.90
7572;DHT22;3827;49.928;8.548;2023-04-24T07:40:52;11.50;99.90
7572;DHT22;3827;49.928;8.548;2023-04-24T07:43:20;11.50;99.90
7572;DHT22;3827;49.928;8.548;2023-04-24T07:45:47;11.60;99.90
7572;DHT22;3827;49.928;8.548;2023-04-24T07:48:14;11.80;99.90
7572;DHT22;3827;49.928;8.548;2023-04-24T07:50:41;11.90;99.90
7572;DHT22;3827;49.928;8.548;2023-04-24T07:53:08;11.80;99.90
7572;DHT22;3827;49.928;8.548;2023-04-24T07:55:35;11.70;99.90
7572;DHT22;3827;49.928;8.548;2023-04-24T07:58:02;12.90;99.90
7572;DHT22;3827;49.928;8.548;2023-04-24T08:00:30;12.10;99.90
7572;DHT22;3827;49.928;8.548;2023-04-24T08:02:57;12.40;99.90
7572;DHT22;3827;49.928;8.548;2023-04-24T08:05:24;12.80;99.90
7572;DHT22;3827;49.928;8.548;2023-04-24T08:07:53;12.90;99.90
7572;DHT22;3827;49.928;8.548;2023-04-24T08:10:20;12.90;99.90
7572;DHT22;3827;49.928;8.548;2023-04-24T08:12:47;12.60;99.90
7572;DHT22;3827;49.928;8.548;2023-04-24T08:15:14;12.50;99.90
7572;DHT22;3827;49.928;8.548;2023-04-24T08:17:43;12.30;99.90
7572;DHT22;3827;49.928;8.548;2023-04-24T08:20:11;12.40;99.90
7572;DHT22;3827;49.928;8.548;2023-04-24T08:22:39;12.90;99.90
7572;DHT22;3827;49.928;8.548;2023-04-24T08:25:06;12.80;99.90
7572;DHT22;3827;49.928;8.548;2023-04-24T08:27:33;13.00;99.90
7572;DHT22;3827;49.928;8.548;2023-04-24T08:30:02;13.20;99.90
7572;DHT22;3827;49.928;8.548;2023-04-24T08:32:29;13.20;99.90
7572;DHT22;3827;49.928;8.548;2023-04-24T08:34:57;13.20;99.90
7572;DHT22;3827;49.928;8.548;2023-04-24T08:37:26;13.00;99.90
7572;DHT22;3827;49.928;8.548;2023-04-24T08:39:53;12.90;99.90
7572;DHT22;3827;49.928;8.548;2023-04-24T08:42:20;13.00;99.90
7572;DHT22;3827;49.928;8.548;2023-04-24T08:44:49;13.10;99.90
7572;DHT22;3827;49.928;8.548;2023-04-24T08:47:16;13.10;99.90
7572;DHT22;3827;49.928;8.548;2023-04-24T08:49:43;12.90;99.90
7572;DHT22;3827;49.928;8.548;2023-04-24T08:52:12;13.10;99.90
7572;DHT22;3827;49.928;8.548;2023-04-24T08:54:41;12.90;99.90
7572;DHT22;3827;49.928;8.548;2023-04-24T08:57:09;13.10;99.90
7572;DHT22;3827;49.928;8.548;2023-04-24T08:59:38;12.80;99.90
7572;DHT22;3827;49.928;8.548;2023-04-24T09:02:05;12.50;99.90
7572;DHT22;3827;49.928;8.548;2023-04-24T09:04:34;12.10;99.90
7572;DHT22;3827;49.928;8.548;2023-04-24T09:07:01;12.30;99.90
7572;DHT22;3827;49.928;8.548;2023-04-24T09:09:30;12.40;99.90
7572;DHT22;3827;49.928;8.548;2023-04-24T09:11:59;12.20;99.90
7572;DHT22;3827;49.928;8.548;2023-04-24T09:14:27;12.20;99.90
7572;DHT22;3827;49.928;8.548;2023-04-24T09:16:54;12.20;99.90
7572;DHT22;3827;49.928;8.548;2023-04-24T09:19:21;12.10;99.90
7572;DHT22;3827;49.928;8.548;2023-04-24T09:21:48;12.20;99.90
7572;DHT22;3827;49.928;8.548;2023-04-24T09:24:17;12.20;99.90
7572;DHT22;3827;49.928;8.548;2023-04-24T09:26:47;12.30;99.90
7572;DHT22;3827;49.928;8.548;2023-04-24T09:29:17;12.20;99.90
7572;DHT22;3827;49.928;8.548;2023-04-24T09:31:45;12.30;99.90
7572;DHT22;3827;49.928;8.548;2023-04-24T09:34:12;12.30;99.90
7572;DHT22;3827;49.928;8.548;2023-04-24T09:36:41;12.60;99.90
7572;DHT22;3827;49.928;8.548;2023-04-24T09:39:10;12.80;99.90
7572;DHT22;3827;49.928;8.548;2023-04-24T09:41:44;12.50;99.90
7572;DHT22;3827;49.928;8.548;2023-04-24T09:44:14;12.60;99.90
7572;DHT22;3827;49.928;8.548;2023-04-24T09:46:41;12.40;99.90
7572;DHT22;3827;49.928;8.548;2023-04-24T09:49:09;12.40;99.90
7572;DHT22;3827;49.928;8.548;2023-04-24T09:51:38;12.40;99.90
7572;DHT22;3827;49.928;8.548;2023-04-24T09:54:14;12.60;99.90
7572;DHT22;3827;49.928;8.548;2023-04-24T09:56:43;12.80;99.90
7572;DHT22;3827;49.928;8.548;2023-04-24T09:59:11;13.00;99.90
7572;DHT22;3827;49.928;8.548;2023-04-24T10:01:39;13.20;99.90
7572;DHT22;3827;49.928;8.548;2023-04-24T10:04:16;13.40;99.90
7572;DHT22;3827;49.928;8.548;2023-04-24T10:06:44;13.50;99.90
7572;DHT22;3827;49.928;8.548;2023-04-24T10:09:11;13.50;99.90
7572;DHT22;3827;49.928;8.548;2023-04-24T10:11:41;13.60;99.90
7572;DHT22;3827;49.928;8.548;2023-04-24T10:14:09;13.30;99.90
7572;DHT22;3827;49.928;8.548;2023-04-24T10:16:39;13.10;99.90
7572;DHT22;3827;49.928;8.548;2023-04-24T10:19:07;13.10;99.90
7572;DHT22;3827;49.928;8.548;2023-04-24T10:21:34;12.80;99.90
7572;DHT22;3827;49.928;8.548;2023-04-24T10:24:03;12.70;99.90
7572;DHT22;3827;49.928;8.548;2023-04-24T10:26:33;13.00;99.90
7572;DHT22;3827;49.928;8.548;2023-04-24T10:29:01;13.30;99.90
7572;DHT22;3827;49.928;8.548;2023-04-24T10:31:31;14.00;99.90
7572;DHT22;3827;49.928;8.548;2023-04-24T10:34:00;14.80;99.90
7572;DHT22;3827;49.928;8.548;2023-04-24T10:36:28;14.70;99.90
7572;DHT22;3827;49.928;8.548;2023-04-24T10:39:00;14.50;99.90
7572;DHT22;3827;49.928;8.548;2023-04-24T10:41:27;14.60;99.90
7572;DHT22;3827;49.928;8.548;2023-04-24T10:44:06;13.50;99.90
7572;DHT22;3827;49.928;8.548;2023-04-24T10:46:33;12.70;99.90
7572;DHT22;3827;49.928;8.548;2023-04-24T10:49:04;13.00;99.90
7572;DHT22;3827;49.928;8.548;2023-04-24T10:51:45;13.20;99.90
7572;DHT22;3827;49.928;8.548;2023-04-24T10:54:26;13.10;99.90
7572;DHT22;3827;49.928;8.548;2023-04-24T10:56:53;12.40;99.90
7572;DHT22;3827;49.928;8.548;2023-04-24T10:59:40;12.00;99.90
7572;DHT22;3827;49.928;8.548;2023-04-24T11:02:08;11.50;99.90
7572;DHT22;3827;49.928;8.548;2023-04-24T11:04:36;10.90;99.90
7572;DHT22;3827;49.928;8.548;2023-04-24T11:07:03;10.50;99.90
7572;DHT22;3827;49.928;8.548;2023-04-24T11:09:31;10.10;99.90
7572;DHT22;3827;49.928;8.548;2023-04-24T11:12:05;9.80;99.90
7572;DHT22;3827;49.928;8.548;2023-04-24T11:15:00;9.60;99.90
7572;DHT22;3827;49.928;8.548;2023-04-24T11:17:29;9.80;99.90
7572;DHT22;3827;49.928;8.548;2023-04-24T11:20:02;11.10;99.90
7572;DHT22;3827;49.928;8.548;2023-04-24T11:22:33;10.20;99.90
7572;DHT22;3827;49.928;8.548;2023-04-24T11:25:01;10.20;99.90
7572;DHT22;3827;49.928;8.548;2023-04-24T11:27:30;10.10;99.90
7572;DHT22;3827;49.928;8.548;2023-04-24T11:30:02;10.10;99.90
7572;DHT22;3827;49.928;8.548;2023-04-24T11:32:34;10.10;99.90
7572;DHT22;3827;49.928;8.548;2023-04-24T11:35:07;9.80;99.90
7572;DHT22;3827;49.928;8.548;2023-04-24T11:37:36;9.80;99.90
7572;DHT22;3827;49.928;8.548;2023-04-24T11:40:04;9.80;99.90
7572;DHT22;3827;49.928;8.548;2023-04-24T11:42:34;9.70;99.90
7572;DHT22;3827;49.928;8.548;2023-04-24T11:45:01;9.50;99.90
7572;DHT22;3827;49.928;8.548;2023-04-24T11:47:29;9.30;99.90
7572;DHT22;3827;49.928;8.548;2023-04-24T11:49:57;9.40;99.90
7572;DHT22;3827;49.928;8.548;2023-04-24T11:52:25;9.40;99.90
7572;DHT22;3827;49.928;8.548;2023-04-24T11:54:52;9.80;99.90
7572;DHT22;3827;49.928;8.548;2023-04-24T11:57:20;10.20;99.90
7572;DHT22;3827;49.928;8.548;2023-04-24T11:59:48;10.50;99.90
7572;DHT22;3827;49.928;8.548;2023-04-24T12:02:22;10.70;99.90
7572;DHT22;3827;49.928;8.548;2023-04-24T12:04:49;12.80;99.90
7572;DHT22;3827;49.928;8.548;2023-04-24T12:07:16;11.50;99.90
7572;DHT22;3827;49.928;8.548;2023-04-24T12:09:46;12.00;99.90
7572;DHT22;3827;49.928;8.548;2023-04-24T12:12:14;12.70;99.90
7572;DHT22;3827;49.928;8.548;2023-04-24T12:14:45;13.00;99.90
7572;DHT22;3827;49.928;8.548;2023-04-24T12:17:11;13.10;99.90
7572;DHT22;3827;49.928;8.548;2023-04-24T12:19:45;14.80;99.90
7572;DHT22;3827;49.928;8.548;2023-04-24T12:22:12;14.10;99.90
7572;DHT22;3827;49.928;8.548;2023-04-24T12:24:58;13.30;99.90
7572;DHT22;3827;49.928;8.548;2023-04-24T12:27:26;13.90;99.90
7572;DHT22;3827;49.928;8.548;2023-04-24T12:29:53;14.00;99.90
7572;DHT22;3827;49.928;8.548;2023-04-24T12:32:22;14.20;99.90
7572;DHT22;3827;49.928;8.548;2023-04-24T12:34:49;14.10;99.90
7572;DHT22;3827;49.928;8.548;2023-04-24T12:37:17;13.50;99.90
7572;DHT22;3827;49.928;8.548;2023-04-24T12:40:03;13.10;99.90
7572;DHT22;3827;49.928;8.548;2023-04-24T12:42:31;12.50;99.90
7572;DHT22;3827;49.928;8.548;2023-04-24T12:44:59;12.50;99.90
7572;DHT22;3827;49.928;8.548;2023-04-24T12:47:27;12.60;99.90
7572;DHT22;3827;49.928;8.548;2023-04-24T12:49:54;12.40;99.90
7572;DHT22;3827;49.928;8.548;2023-04-24T12:52:21;12.10;99.90
7572;DHT22;3827;49.928;8.548;2023-04-24T12:54:49;11.80;99.90
7572;DHT22;3827;49.928;8.548;2023-04-24T12:57:18;11.90;99.90
7572;DHT22;3827;49.928;8.548;2023-04-24T12:59:45;12.00;99.90
7572;DHT22;3827;49.928;8.548;2023-04-24T13:02:11;12.50;99.90
7572;DHT22;3827;49.928;8.548;2023-04-24T13:04:39;12.90;99.90
7572;DHT22;3827;49.928;8.548;2023-04-24T13:07:06;12.90;99.90
7572;DHT22;3827;49.928;8.548;2023-04-24T13:09:34;13.00;99.90
7572;DHT22;3827;49.928;8.548;2023-04-24T13:12:02;13.20;99.90
7572;DHT22;3827;49.928;8.548;2023-04-24T13:14:32;13.20;99.90
7572;DHT22;3827;49.928;8.548;2023-04-24T13:16:59;13.20;99.90
7572;DHT22;3827;49.928;8.548;2023-04-24T13:19:26;13.30;99.90
7572;DHT22;3827;49.928;8.548;2023-04-24T13:21:55;13.30;99.90
7572;DHT22;3827;49.928;8.548;2023-04-24T13:24:22;13.40;99.90
7572;DHT22;3827;49.928;8.548;2023-04-24T13:26:50;13.60;99.90
7572;DHT22;3827;49.928;8.548;2023-04-24T13:29:17;13.60;99.90
7572;DHT22;3827;49.928;8.548;2023-04-24T13:31:46;13.60;99.90
7572;DHT22;3827;49.928;8.548;2023-04-24T13:34:13;13.40;99.90
7572;DHT22;3827;49.928;8.548;2023-04-24T13:36:40;13.10;99.90
7572;DHT22;3827;49.928;8.548;2023-04-24T13:39:06;13.20;99.90
7572;DHT22;3827;49.928;8.548;2023-04-24T13:41:34;12.90;99.90
7572;DHT22;3827;49.928;8.548;2023-04-24T13:44:01;13.00;99.90
7572;DHT22;3827;49.928;8.548;2023-04-24T13:46:28;12.70;99.90
7572;DHT22;3827;49.928;8.548;2023-04-24T13:48:57;12.70;99.90
7572;DHT22;3827;49.928;8.548;2023-04-24T13:51:25;12.90;99.90
7572;DHT22;3827;49.928;8.548;2023-04-24T13:53:53;12.60;99.90
7572;DHT22;3827;49.928;8.548;2023-04-24T13:56:20;12.60;99.90
7572;DHT22;3827;49.928;8.548;2023-04-24T13:58:48;12.80;99.90
7572;DHT22;3827;49.928;8.548;2023-04-24T14:01:15;12.80;99.90
7572;DHT22;3827;49.928;8.548;2023-04-24T14:03:42;13.10;99.90
7572;DHT22;3827;49.928;8.548;2023-04-24T14:06:11;13.20;99.90
7572;DHT22;3827;49.928;8.548;2023-04-24T14:08:38;13.40;99.90
7572;DHT22;3827;49.928;8.548;2023-04-24T14:11:04;13.20;99.90
7572;DHT22;3827;49.928;8.548;2023-04-24T14:13:31;13.20;99.90
7572;DHT22;3827;49.928;8.548;2023-04-24T14:15:58;13.10;99.90
7572;DHT22;3827;49.928;8.548;2023-04-24T14:18:25;13.10;99.90
7572;DHT22;3827;49.928;8.548;2023-04-24T14:20:52;13.20;99.90
7572;DHT22;3827;49.928;8.548;2023-04-24T14:23:20;13.20;99.90
7572;DHT22;3827;49.928;8.548;2023-04-24T14:25:47;13.40;99.90
7572;DHT22;3827;49.928;8.548;2023-04-24T14:28:17;13.50;99.90
7572;DHT22;3827;49.928;8.548;2023-04-24T14:30:44;13.70;99.90
7572;DHT22;3827;49.928;8.548;2023-04-24T14:33:11;13.10;99.90
7572;DHT22;3827;49.928;8.548;2023-04-24T14:35:38;13.40;99.90
7572;DHT22;3827;49.928;8.548;2023-04-24T14:38:07;13.60;99.90
7572;DHT22;3827;49.928;8.548;2023-04-24T14:40:36;13.50;99.90
7572;DHT22;3827;49.928;8.548;2023-04-24T14:43:02;13.60;99.90
7572;DHT22;3827;49.928;8.548;2023-04-24T14:45:30;13.70;99.90
7572;DHT22;3827;49.928;8.548;2023-04-24T14:47:57;13.60;99.90
7572;DHT22;3827;49.928;8.548;2023-04-24T14:50:24;13.30;99.90
7572;DHT22;3827;49.928;8.548;2023-04-24T14:52:53;13.10;99.90
7572;DHT22;3827;49.928;8.548;2023-04-24T14:55:20;13.30;99.90
7572;DHT22;3827;49.928;8.548;2023-04-24T14:57:48;13.70;99.90
7572;DHT22;3827;49.928;8.548;2023-04-24T15:00:16;14.20;99.90
7572;DHT22;3827;49.928;8.548;2023-04-24T15:02:43;14.40;99.90
7572;DHT22;3827;49.928;8.548;2023-04-24T15:05:10;14.10;99.90
7572;DHT22;3827;49.928;8.548;2023-04-24T15:07:37;14.10;99.90
7572;DHT22;3827;49.928;8.548;2023-04-24T15:10:05;14.00;99.90
7572;DHT22;3827;49.928;8.548;2023-04-24T15:12:32;14.90;99.90
7572;DHT22;3827;49.928;8.548;2023-04-24T15:15:00;14.80;99.90
7572;DHT22;3827;49.928;8.548;2023-04-24T15:17:27;15.30;99.90
7572;DHT22;3827;49.928;8.548;2023-04-24T15:19:54;15.60;99.90
7572;DHT22;3827;49.928;8.548;2023-04-24T15:22:21;16.30;99.90
7572;DHT22;3827;49.928;8.548;2023-04-24T15:24:48;16.10;99.90
7572;DHT22;3827;49.928;8.548;2023-04-24T15:27:15;16.10;99.90
7572;DHT22;3827;49.928;8.548;2023-04-24T15:29:41;15.40;99.90
7572;DHT22;3827;49.928;8.548;2023-04-24T15:32:10;15.10;99.90
7572;DHT22;3827;49.928;8.548;2023-04-24T15:34:36;15.00;99.90
7572;DHT22;3827;49.928;8.548;2023-04-24T15:37:03;15.20;99.90
7572;DHT22;3827;49.928;8.548;2023-04-24T15:39:30;14.80;99.90
7572;DHT22;3827;49.928;8.548;2023-04-24T15:41:59;14.70;99.90
7572;DHT22;3827;49.928;8.548;2023-04-24T15:44:26;15.20;99.90
7572;DHT22;3827;49.928;8.548;2023-04-24T15:46:53;15.20;99.90
7572;DHT22;3827;49.928;8.548;2023-04-24T15:49:22;15.20;99.90
7572;DHT22;3827;49.928;8.548;2023-04-24T15:51:49;14.60;99.90
7572;DHT22;3827;49.928;8.548;2023-04-24T15:54:16;14.30;99.90
7572;DHT22;3827;49.928;8.548;2023-04-24T15:56:42;14.40;99.90
7572;DHT22;3827;49.928;8.548;2023-04-24T15:59:10;14.40;99.90
7572;DHT22;3827;49.928;8.548;2023-04-24T16:01:36;15.90;99.90
7572;DHT22;3827;49.928;8.548;2023-04-24T16:04:04;14.10;99.90
7572;DHT22;3827;49.928;8.548;2023-04-24T16:06:32;13.90;99.90
7572;DHT22;3827;49.928;8.548;2023-04-24T16:08:59;13.30;99.90